Aviation Digital Data Service (ADDS)

Output produced by METARs form (1925 UTC 19 August 2019)
found at http://www.aviationweather.gov/metar/data/
 
Forecast for: ZUCK (CHONGQING/CHUNGK, CN)
Text: TAF ZUCK 191501Z 1918/2018 12003MPS 6000 FEW050 TX38/2008Z TN30/1921Z
Forecast period: 1800 UTC 19 August 2019 to 1800 UTC 20 August 2019
Forecast type: FROM: standard forecast or significant change
Winds: from the ESE (120 degrees) at 7 MPH (6 knots; 3.1 m/s)
Visibility: 4 miles (6 km)
Ceiling: at least 12,000 feet AGL
Clouds: few clouds at 5000 feet AGL
Weather: no significant weather forecast for this period